sensor_id;sensor_type;location;lat;lon;timestamp;P1;durP1;ratioP1;P2;durP2;ratioP2
45650;SDS011;31365;48.858;8.530;2023-12-07T00:01:59;10.40;;;7.90;;
45650;SDS011;31365;48.858;8.530;2023-12-07T00:04:27;11.83;;;9.47;;
45650;SDS011;31365;48.858;8.530;2023-12-07T00:06:55;14.80;;;8.67;;
45650;SDS011;31365;48.858;8.530;2023-12-07T00:09:24;14.07;;;8.97;;
45650;SDS011;31365;48.858;8.530;2023-12-07T00:11:53;32.97;;;18.20;;
45650;SDS011;31365;48.858;8.530;2023-12-07T00:14:22;21.43;;;12.73;;
45650;SDS011;31365;48.858;8.530;2023-12-07T00:16:50;9.20;;;7.37;;
45650;SDS011;31365;48.858;8.530;2023-12-07T00:19:18;7.73;;;6.27;;
45650;SDS011;31365;48.858;8.530;2023-12-07T00:21:47;8.43;;;6.63;;
45650;SDS011;31365;48.858;8.530;2023-12-07T00:24:15;8.50;;;6.40;;
45650;SDS011;31365;48.858;8.530;2023-12-07T00:26:43;6.97;;;6.27;;
45650;SDS011;31365;48.858;8.530;2023-12-07T00:29:13;10.80;;;6.93;;
45650;SDS011;31365;48.858;8.530;2023-12-07T00:31:43;8.50;;;6.77;;
45650;SDS011;31365;48.858;8.530;2023-12-07T00:34:11;7.40;;;6.70;;
45650;SDS011;31365;48.858;8.530;2023-12-07T00:36:39;10.27;;;6.37;;
45650;SDS011;31365;48.858;8.530;2023-12-07T00:39:08;8.93;;;6.60;;
45650;SDS011;31365;48.858;8.530;2023-12-07T00:41:36;6.77;;;6.07;;
45650;SDS011;31365;48.858;8.530;2023-12-07T00:44:04;9.37;;;6.23;;
45650;SDS011;31365;48.858;8.530;2023-12-07T00:46:33;8.10;;;6.50;;
45650;SDS011;31365;48.858;8.530;2023-12-07T00:49:02;6.53;;;5.93;;
45650;SDS011;31365;48.858;8.530;2023-12-07T00:51:31;9.43;;;6.07;;
45650;SDS011;31365;48.858;8.530;2023-12-07T00:53:59;7.27;;;5.90;;
45650;SDS011;31365;48.858;8.530;2023-12-07T00:56:28;5.80;;;5.30;;
45650;SDS011;31365;48.858;8.530;2023-12-07T00:58:56;5.33;;;4.83;;
45650;SDS011;31365;48.858;8.530;2023-12-07T01:01:24;6.80;;;5.40;;
45650;SDS011;31365;48.858;8.530;2023-12-07T01:03:52;6.23;;;5.13;;
45650;SDS011;31365;48.858;8.530;2023-12-07T01:06:22;6.47;;;5.80;;
45650;SDS011;31365;48.858;8.530;2023-12-07T01:08:51;6.33;;;5.57;;
45650;SDS011;31365;48.858;8.530;2023-12-07T01:11:19;6.60;;;6.00;;
45650;SDS011;31365;48.858;8.530;2023-12-07T01:13:50;8.20;;;5.83;;
45650;SDS011;31365;48.858;8.530;2023-12-07T01:16:18;6.80;;;6.13;;
45650;SDS011;31365;48.858;8.530;2023-12-07T01:18:46;9.10;;;6.30;;
45650;SDS011;31365;48.858;8.530;2023-12-07T01:21:15;11.47;;;7.00;;
45650;SDS011;31365;48.858;8.530;2023-12-07T01:23:45;7.50;;;6.43;;
45650;SDS011;31365;48.858;8.530;2023-12-07T01:26:24;9.47;;;7.07;;
45650;SDS011;31365;48.858;8.530;2023-12-07T01:28:53;9.10;;;6.03;;
45650;SDS011;31365;48.858;8.530;2023-12-07T01:31:21;6.33;;;5.73;;
45650;SDS011;31365;48.858;8.530;2023-12-07T01:33:50;5.47;;;4.97;;
45650;SDS011;31365;48.858;8.530;2023-12-07T01:36:18;6.47;;;4.97;;
45650;SDS011;31365;48.858;8.530;2023-12-07T01:38:48;5.83;;;5.10;;
45650;SDS011;31365;48.858;8.530;2023-12-07T01:41:17;5.43;;;4.93;;
45650;SDS011;31365;48.858;8.530;2023-12-07T01:43:45;7.80;;;6.17;;
45650;SDS011;31365;48.858;8.530;2023-12-07T01:46:15;5.37;;;4.87;;
45650;SDS011;31365;48.858;8.530;2023-12-07T01:48:44;5.63;;;5.03;;
45650;SDS011;31365;48.858;8.530;2023-12-07T01:51:15;6.23;;;4.63;;
45650;SDS011;31365;48.858;8.530;2023-12-07T01:53:48;4.90;;;4.40;;
45650;SDS011;31365;48.858;8.530;2023-12-07T01:56:19;6.83;;;5.37;;
45650;SDS011;31365;48.858;8.530;2023-12-07T01:58:49;5.43;;;4.83;;
45650;SDS011;31365;48.858;8.530;2023-12-07T02:01:18;5.47;;;5.07;;
45650;SDS011;31365;48.858;8.530;2023-12-07T02:03:47;6.20;;;5.60;;
45650;SDS011;31365;48.858;8.530;2023-12-07T02:06:15;8.10;;;4.90;;
45650;SDS011;31365;48.858;8.530;2023-12-07T02:08:44;5.70;;;5.10;;
45650;SDS011;31365;48.858;8.530;2023-12-07T02:11:14;5.67;;;5.00;;
45650;SDS011;31365;48.858;8.530;2023-12-07T02:13:42;5.90;;;5.20;;
45650;SDS011;31365;48.858;8.530;2023-12-07T02:16:13;6.60;;;5.17;;
45650;SDS011;31365;48.858;8.530;2023-12-07T02:18:51;5.03;;;4.53;;
45650;SDS011;31365;48.858;8.530;2023-12-07T02:21:30;5.43;;;4.93;;
45650;SDS011;31365;48.858;8.530;2023-12-07T02:24:06;5.50;;;5.00;;
45650;SDS011;31365;48.858;8.530;2023-12-07T02:26:37;5.40;;;4.90;;
45650;SDS011;31365;48.858;8.530;2023-12-07T02:29:06;7.60;;;5.20;;
45650;SDS011;31365;48.858;8.530;2023-12-07T02:31:35;5.60;;;5.10;;
45650;SDS011;31365;48.858;8.530;2023-12-07T02:34:03;5.50;;;5.00;;
45650;SDS011;31365;48.858;8.530;2023-12-07T02:36:32;5.20;;;4.70;;
45650;SDS011;31365;48.858;8.530;2023-12-07T02:39:05;6.70;;;4.73;;
45650;SDS011;31365;48.858;8.530;2023-12-07T02:41:37;5.90;;;5.30;;
45650;SDS011;31365;48.858;8.530;2023-12-07T02:44:08;5.73;;;5.20;;
45650;SDS011;31365;48.858;8.530;2023-12-07T02:46:37;7.20;;;5.13;;
45650;SDS011;31365;48.858;8.530;2023-12-07T02:49:06;6.23;;;4.90;;
45650;SDS011;31365;48.858;8.530;2023-12-07T02:51:34;7.37;;;5.07;;
45650;SDS011;31365;48.858;8.530;2023-12-07T02:54:03;6.43;;;4.57;;
45650;SDS011;31365;48.858;8.530;2023-12-07T02:56:32;7.00;;;4.80;;
45650;SDS011;31365;48.858;8.530;2023-12-07T02:59:01;5.47;;;4.27;;
45650;SDS011;31365;48.858;8.530;2023-12-07T03:01:30;6.13;;;4.80;;
45650;SDS011;31365;48.858;8.530;2023-12-07T03:03:58;5.87;;;4.70;;
45650;SDS011;31365;48.858;8.530;2023-12-07T03:06:26;5.50;;;4.77;;
45650;SDS011;31365;48.858;8.530;2023-12-07T03:08:55;6.43;;;4.63;;
45650;SDS011;31365;48.858;8.530;2023-12-07T03:11:24;4.83;;;4.40;;
45650;SDS011;31365;48.858;8.530;2023-12-07T03:13:52;6.47;;;4.60;;
45650;SDS011;31365;48.858;8.530;2023-12-07T03:16:22;5.23;;;4.73;;
45650;SDS011;31365;48.858;8.530;2023-12-07T03:18:50;5.37;;;3.97;;
45650;SDS011;31365;48.858;8.530;2023-12-07T03:21:18;6.87;;;4.73;;
45650;SDS011;31365;48.858;8.530;2023-12-07T03:23:47;7.13;;;4.70;;
45650;SDS011;31365;48.858;8.530;2023-12-07T03:26:16;4.63;;;4.17;;
45650;SDS011;31365;48.858;8.530;2023-12-07T03:28:44;5.77;;;4.60;;
45650;SDS011;31365;48.858;8.530;2023-12-07T03:31:13;4.97;;;4.27;;
45650;SDS011;31365;48.858;8.530;2023-12-07T03:33:42;8.00;;;4.83;;
45650;SDS011;31365;48.858;8.530;2023-12-07T03:36:11;7.93;;;4.90;;
45650;SDS011;31365;48.858;8.530;2023-12-07T03:38:39;7.70;;;4.70;;
45650;SDS011;31365;48.858;8.530;2023-12-07T03:41:07;5.77;;;4.83;;
45650;SDS011;31365;48.858;8.530;2023-12-07T03:43:36;10.07;;;5.70;;
45650;SDS011;31365;48.858;8.530;2023-12-07T03:46:04;5.87;;;5.27;;
45650;SDS011;31365;48.858;8.530;2023-12-07T03:48:33;7.37;;;6.27;;
45650;SDS011;31365;48.858;8.530;2023-12-07T03:51:03;6.17;;;5.30;;
45650;SDS011;31365;48.858;8.530;2023-12-07T03:53:32;5.60;;;5.00;;
45650;SDS011;31365;48.858;8.530;2023-12-07T03:56:00;5.53;;;4.93;;
45650;SDS011;31365;48.858;8.530;2023-12-07T03:58:29;5.47;;;4.60;;
45650;SDS011;31365;48.858;8.530;2023-12-07T04:00:57;5.30;;;4.67;;
45650;SDS011;31365;48.858;8.530;2023-12-07T04:03:25;6.27;;;4.70;;
45650;SDS011;31365;48.858;8.530;2023-12-07T04:05:54;8.13;;;5.13;;
45650;SDS011;31365;48.858;8.530;2023-12-07T04:08:24;33.13;;;20.43;;
45650;SDS011;31365;48.858;8.530;2023-12-07T04:10:53;22.93;;;15.50;;
45650;SDS011;31365;48.858;8.530;2023-12-07T04:13:21;14.80;;;10.90;;
45650;SDS011;31365;48.858;8.530;2023-12-07T04:15:49;13.33;;;9.20;;
45650;SDS011;31365;48.858;8.530;2023-12-07T04:18:17;11.30;;;8.90;;
45650;SDS011;31365;48.858;8.530;2023-12-07T04:20:46;8.90;;;7.03;;
45650;SDS011;31365;48.858;8.530;2023-12-07T04:23:14;6.67;;;5.20;;
45650;SDS011;31365;48.858;8.530;2023-12-07T04:25:44;8.87;;;5.93;;
45650;SDS011;31365;48.858;8.530;2023-12-07T04:28:12;11.33;;;8.77;;
45650;SDS011;31365;48.858;8.530;2023-12-07T04:30:40;10.17;;;5.80;;
45650;SDS011;31365;48.858;8.530;2023-12-07T04:33:08;6.17;;;5.50;;
45650;SDS011;31365;48.858;8.530;2023-12-07T04:35:36;4.80;;;3.67;;
45650;SDS011;31365;48.858;8.530;2023-12-07T04:38:05;11.40;;;8.40;;
45650;SDS011;31365;48.858;8.530;2023-12-07T04:40:33;34.73;;;22.40;;
45650;SDS011;31365;48.858;8.530;2023-12-07T04:43:03;40.20;;;22.70;;
45650;SDS011;31365;48.858;8.530;2023-12-07T04:45:31;24.67;;;16.57;;
45650;SDS011;31365;48.858;8.530;2023-12-07T04:48:00;41.33;;;23.83;;
45650;SDS011;31365;48.858;8.530;2023-12-07T04:50:30;26.10;;;17.97;;
45650;SDS011;31365;48.858;8.530;2023-12-07T04:52:58;21.67;;;14.17;;
45650;SDS011;31365;48.858;8.530;2023-12-07T04:55:27;16.40;;;11.53;;
45650;SDS011;31365;48.858;8.530;2023-12-07T04:57:56;15.07;;;10.17;;
45650;SDS011;31365;48.858;8.530;2023-12-07T05:00:26;15.30;;;10.77;;
45650;SDS011;31365;48.858;8.530;2023-12-07T05:02:54;17.90;;;10.70;;
45650;SDS011;31365;48.858;8.530;2023-12-07T05:05:23;17.07;;;11.30;;
45650;SDS011;31365;48.858;8.530;2023-12-07T05:07:51;20.17;;;14.27;;
45650;SDS011;31365;48.858;8.530;2023-12-07T05:10:20;31.37;;;19.73;;
45650;SDS011;31365;48.858;8.530;2023-12-07T05:12:48;24.10;;;15.97;;
45650;SDS011;31365;48.858;8.530;2023-12-07T05:15:17;24.17;;;16.63;;
45650;SDS011;31365;48.858;8.530;2023-12-07T05:17:46;29.40;;;21.53;;
45650;SDS011;31365;48.858;8.530;2023-12-07T05:20:14;47.03;;;31.50;;
45650;SDS011;31365;48.858;8.530;2023-12-07T05:22:45;47.83;;;29.87;;
45650;SDS011;31365;48.858;8.530;2023-12-07T05:25:13;26.27;;;17.87;;
45650;SDS011;31365;48.858;8.530;2023-12-07T05:27:41;18.70;;;13.13;;
45650;SDS011;31365;48.858;8.530;2023-12-07T05:30:10;18.30;;;13.43;;
45650;SDS011;31365;48.858;8.530;2023-12-07T05:32:39;17.43;;;12.77;;
45650;SDS011;31365;48.858;8.530;2023-12-07T05:35:09;16.37;;;12.73;;
45650;SDS011;31365;48.858;8.530;2023-12-07T05:37:37;17.57;;;11.37;;
45650;SDS011;31365;48.858;8.530;2023-12-07T05:40:06;17.13;;;12.07;;
45650;SDS011;31365;48.858;8.530;2023-12-07T05:42:38;24.27;;;17.03;;
45650;SDS011;31365;48.858;8.530;2023-12-07T05:45:07;16.47;;;13.10;;
45650;SDS011;31365;48.858;8.530;2023-12-07T05:47:36;13.17;;;9.90;;
45650;SDS011;31365;48.858;8.530;2023-12-07T05:50:05;8.80;;;7.73;;
45650;SDS011;31365;48.858;8.530;2023-12-07T05:52:36;8.73;;;6.70;;
45650;SDS011;31365;48.858;8.530;2023-12-07T05:55:05;10.77;;;8.60;;
45650;SDS011;31365;48.858;8.530;2023-12-07T05:57:35;18.87;;;14.13;;
45650;SDS011;31365;48.858;8.530;2023-12-07T06:00:03;8.77;;;6.70;;
45650;SDS011;31365;48.858;8.530;2023-12-07T06:02:37;6.63;;;5.77;;
45650;SDS011;31365;48.858;8.530;2023-12-07T06:05:06;6.83;;;6.13;;
45650;SDS011;31365;48.858;8.530;2023-12-07T06:07:37;11.23;;;8.70;;
45650;SDS011;31365;48.858;8.530;2023-12-07T06:10:06;9.10;;;7.17;;
45650;SDS011;31365;48.858;8.530;2023-12-07T06:12:35;10.40;;;8.30;;
45650;SDS011;31365;48.858;8.530;2023-12-07T06:15:03;11.23;;;8.47;;
45650;SDS011;31365;48.858;8.530;2023-12-07T06:17:34;8.93;;;7.17;;
45650;SDS011;31365;48.858;8.530;2023-12-07T06:20:03;7.47;;;5.33;;
45650;SDS011;31365;48.858;8.530;2023-12-07T06:22:34;4.97;;;4.47;;
45650;SDS011;31365;48.858;8.530;2023-12-07T06:25:03;5.43;;;4.87;;
45650;SDS011;31365;48.858;8.530;2023-12-07T06:27:31;6.23;;;5.57;;
45650;SDS011;31365;48.858;8.530;2023-12-07T06:30:00;6.47;;;4.83;;
45650;SDS011;31365;48.858;8.530;2023-12-07T06:32:28;6.90;;;4.97;;
45650;SDS011;31365;48.858;8.530;2023-12-07T06:34:57;6.77;;;5.57;;
45650;SDS011;31365;48.858;8.530;2023-12-07T06:37:25;6.03;;;4.80;;
45650;SDS011;31365;48.858;8.530;2023-12-07T06:39:55;5.83;;;4.73;;
45650;SDS011;31365;48.858;8.530;2023-12-07T06:42:23;5.73;;;5.13;;
45650;SDS011;31365;48.858;8.530;2023-12-07T06:44:51;5.83;;;4.90;;
45650;SDS011;31365;48.858;8.530;2023-12-07T06:47:20;5.53;;;4.80;;
45650;SDS011;31365;48.858;8.530;2023-12-07T06:49:49;4.63;;;4.23;;
45650;SDS011;31365;48.858;8.530;2023-12-07T06:52:19;4.90;;;4.50;;
45650;SDS011;31365;48.858;8.530;2023-12-07T06:54:47;5.57;;;4.80;;
45650;SDS011;31365;48.858;8.530;2023-12-07T06:57:16;5.03;;;4.63;;
45650;SDS011;31365;48.858;8.530;2023-12-07T06:59:45;6.37;;;4.47;;
45650;SDS011;31365;48.858;8.530;2023-12-07T07:02:14;4.70;;;4.20;;
45650;SDS011;31365;48.858;8.530;2023-12-07T07:04:42;5.50;;;4.40;;
45650;SDS011;31365;48.858;8.530;2023-12-07T07:07:10;4.67;;;4.20;;
45650;SDS011;31365;48.858;8.530;2023-12-07T07:09:39;4.47;;;4.07;;
45650;SDS011;31365;48.858;8.530;2023-12-07T07:12:07;6.47;;;4.60;;
45650;SDS011;31365;48.858;8.530;2023-12-07T07:14:37;4.57;;;4.17;;
45650;SDS011;31365;48.858;8.530;2023-12-07T07:17:06;6.67;;;4.57;;
45650;SDS011;31365;48.858;8.530;2023-12-07T07:19:34;4.97;;;4.47;;
45650;SDS011;31365;48.858;8.530;2023-12-07T07:22:02;4.90;;;4.40;;
45650;SDS011;31365;48.858;8.530;2023-12-07T07:24:31;7.47;;;4.33;;
45650;SDS011;31365;48.858;8.530;2023-12-07T07:27:00;5.10;;;4.60;;
45650;SDS011;31365;48.858;8.530;2023-12-07T07:29:28;5.33;;;4.80;;
45650;SDS011;31365;48.858;8.530;2023-12-07T07:31:57;6.90;;;5.87;;
45650;SDS011;31365;48.858;8.530;2023-12-07T07:34:25;8.53;;;6.33;;
45650;SDS011;31365;48.858;8.530;2023-12-07T07:36:54;6.53;;;5.57;;
45650;SDS011;31365;48.858;8.530;2023-12-07T07:39:22;8.03;;;4.90;;
45650;SDS011;31365;48.858;8.530;2023-12-07T07:41:50;6.40;;;4.67;;
45650;SDS011;31365;48.858;8.530;2023-12-07T07:44:18;9.37;;;5.97;;
45650;SDS011;31365;48.858;8.530;2023-12-07T07:46:46;16.93;;;9.97;;
45650;SDS011;31365;48.858;8.530;2023-12-07T07:49:16;12.27;;;8.10;;
45650;SDS011;31365;48.858;8.530;2023-12-07T07:51:44;10.83;;;7.93;;
45650;SDS011;31365;48.858;8.530;2023-12-07T07:54:12;8.00;;;6.27;;
45650;SDS011;31365;48.858;8.530;2023-12-07T07:56:41;9.33;;;6.57;;
45650;SDS011;31365;48.858;8.530;2023-12-07T07:59:10;12.47;;;10.33;;
45650;SDS011;31365;48.858;8.530;2023-12-07T08:01:38;8.13;;;7.30;;
45650;SDS011;31365;48.858;8.530;2023-12-07T08:04:07;7.37;;;6.67;;
45650;SDS011;31365;48.858;8.530;2023-12-07T08:06:37;11.47;;;8.67;;
45650;SDS011;31365;48.858;8.530;2023-12-07T08:09:07;6.83;;;5.80;;
45650;SDS011;31365;48.858;8.530;2023-12-07T08:11:36;7.10;;;5.87;;
45650;SDS011;31365;48.858;8.530;2023-12-07T08:14:05;9.40;;;7.73;;
45650;SDS011;31365;48.858;8.530;2023-12-07T08:16:33;9.83;;;7.47;;
45650;SDS011;31365;48.858;8.530;2023-12-07T08:19:01;8.43;;;6.47;;
45650;SDS011;31365;48.858;8.530;2023-12-07T08:21:30;7.40;;;4.60;;
45650;SDS011;31365;48.858;8.530;2023-12-07T08:24:00;5.27;;;4.60;;
45650;SDS011;31365;48.858;8.530;2023-12-07T08:26:28;5.63;;;4.20;;
45650;SDS011;31365;48.858;8.530;2023-12-07T08:28:56;4.60;;;3.80;;
45650;SDS011;31365;48.858;8.530;2023-12-07T08:31:24;5.23;;;4.70;;
45650;SDS011;31365;48.858;8.530;2023-12-07T08:33:53;5.23;;;4.30;;
45650;SDS011;31365;48.858;8.530;2023-12-07T08:36:21;4.97;;;3.80;;
45650;SDS011;31365;48.858;8.530;2023-12-07T08:38:50;4.90;;;4.00;;
45650;SDS011;31365;48.858;8.530;2023-12-07T08:41:20;4.20;;;3.80;;
45650;SDS011;31365;48.858;8.530;2023-12-07T08:43:50;5.97;;;4.10;;
45650;SDS011;31365;48.858;8.530;2023-12-07T08:46:18;5.23;;;4.77;;
45650;SDS011;31365;48.858;8.530;2023-12-07T08:48:46;5.77;;;5.00;;
45650;SDS011;31365;48.858;8.530;2023-12-07T08:51:15;5.77;;;5.13;;
45650;SDS011;31365;48.858;8.530;2023-12-07T08:53:43;5.57;;;4.43;;
45650;SDS011;31365;48.858;8.530;2023-12-07T08:56:14;5.97;;;4.83;;
45650;SDS011;31365;48.858;8.530;2023-12-07T08:58:43;7.50;;;5.07;;
45650;SDS011;31365;48.858;8.530;2023-12-07T09:01:11;4.90;;;4.47;;
45650;SDS011;31365;48.858;8.530;2023-12-07T09:03:57;3.10;;;2.90;;
45650;SDS011;31365;48.858;8.530;2023-12-07T09:06:26;3.30;;;3.00;;
45650;SDS011;31365;48.858;8.530;2023-12-07T09:08:55;3.53;;;3.23;;
45650;SDS011;31365;48.858;8.530;2023-12-07T09:11:23;3.20;;;2.73;;
45650;SDS011;31365;48.858;8.530;2023-12-07T09:13:53;2.50;;;2.30;;
45650;SDS011;31365;48.858;8.530;2023-12-07T09:16:22;3.20;;;2.90;;
45650;SDS011;31365;48.858;8.530;2023-12-07T09:18:50;2.60;;;2.40;;
45650;SDS011;31365;48.858;8.530;2023-12-07T09:21:19;3.17;;;2.63;;
45650;SDS011;31365;48.858;8.530;2023-12-07T09:23:47;3.03;;;2.43;;
45650;SDS011;31365;48.858;8.530;2023-12-07T09:26:15;2.67;;;2.47;;
45650;SDS011;31365;48.858;8.530;2023-12-07T09:28:43;2.77;;;2.57;;
45650;SDS011;31365;48.858;8.530;2023-12-07T09:31:13;3.27;;;2.67;;
45650;SDS011;31365;48.858;8.530;2023-12-07T09:33:43;3.60;;;2.70;;
45650;SDS011;31365;48.858;8.530;2023-12-07T09:36:11;2.80;;;2.37;;
45650;SDS011;31365;48.858;8.530;2023-12-07T09:38:44;2.60;;;2.40;;
45650;SDS011;31365;48.858;8.530;2023-12-07T09:41:13;5.20;;;2.73;;
45650;SDS011;31365;48.858;8.530;2023-12-07T09:43:41;4.40;;;3.60;;
45650;SDS011;31365;48.858;8.530;2023-12-07T09:46:09;3.30;;;3.00;;
45650;SDS011;31365;48.858;8.530;2023-12-07T09:48:41;3.30;;;3.00;;
45650;SDS011;31365;48.858;8.530;2023-12-07T09:51:12;3.30;;;3.10;;
45650;SDS011;31365;48.858;8.530;2023-12-07T09:53:42;3.07;;;2.80;;
45650;SDS011;31365;48.858;8.530;2023-12-07T09:56:12;3.30;;;3.00;;
45650;SDS011;31365;48.858;8.530;2023-12-07T09:58:40;2.73;;;2.57;;
45650;SDS011;31365;48.858;8.530;2023-12-07T10:01:09;3.10;;;2.80;;
45650;SDS011;31365;48.858;8.530;2023-12-07T10:03:41;3.40;;;3.10;;
45650;SDS011;31365;48.858;8.530;2023-12-07T10:06:11;3.57;;;3.07;;
45650;SDS011;31365;48.858;8.530;2023-12-07T10:08:39;3.37;;;3.07;;
45650;SDS011;31365;48.858;8.530;2023-12-07T10:11:08;3.57;;;3.27;;
45650;SDS011;31365;48.858;8.530;2023-12-07T10:13:39;4.07;;;3.10;;
45650;SDS011;31365;48.858;8.530;2023-12-07T10:16:08;3.17;;;2.93;;
45650;SDS011;31365;48.858;8.530;2023-12-07T10:18:39;3.70;;;3.40;;
45650;SDS011;31365;48.858;8.530;2023-12-07T10:21:11;3.10;;;2.77;;
45650;SDS011;31365;48.858;8.530;2023-12-07T10:23:41;2.70;;;2.50;;
45650;SDS011;31365;48.858;8.530;2023-12-07T10:26:15;4.27;;;3.03;;
45650;SDS011;31365;48.858;8.530;2023-12-07T10:28:48;3.07;;;2.67;;
45650;SDS011;31365;48.858;8.530;2023-12-07T10:31:19;3.33;;;2.60;;
45650;SDS011;31365;48.858;8.530;2023-12-07T10:33:50;2.93;;;2.73;;
45650;SDS011;31365;48.858;8.530;2023-12-07T10:36:19;5.00;;;2.83;;
45650;SDS011;31365;48.858;8.530;2023-12-07T10:38:47;4.57;;;3.10;;
45650;SDS011;31365;48.858;8.530;2023-12-07T10:41:18;2.90;;;2.60;;
45650;SDS011;31365;48.858;8.530;2023-12-07T10:43:48;2.90;;;2.70;;
45650;SDS011;31365;48.858;8.530;2023-12-07T10:46:20;2.60;;;2.40;;
45650;SDS011;31365;48.858;8.530;2023-12-07T10:48:55;3.20;;;2.90;;
45650;SDS011;31365;48.858;8.530;2023-12-07T10:51:37;2.97;;;2.77;;
45650;SDS011;31365;48.858;8.530;2023-12-07T10:54:14;5.53;;;3.07;;
45650;SDS011;31365;48.858;8.530;2023-12-07T10:56:49;7.90;;;3.53;;
45650;SDS011;31365;48.858;8.530;2023-12-07T10:59:18;3.83;;;3.50;;
45650;SDS011;31365;48.858;8.530;2023-12-07T11:01:58;11.03;;;4.30;;
45650;SDS011;31365;48.858;8.530;2023-12-07T11:04:29;5.83;;;3.80;;
45650;SDS011;31365;48.858;8.530;2023-12-07T11:07:00;3.33;;;3.03;;
45650;SDS011;31365;48.858;8.530;2023-12-07T11:09:38;2.97;;;2.67;;
45650;SDS011;31365;48.858;8.530;2023-12-07T11:12:13;13.90;;;3.63;;
45650;SDS011;31365;48.858;8.530;2023-12-07T11:14:48;2.57;;;2.37;;
45650;SDS011;31365;48.858;8.530;2023-12-07T11:17:17;23.67;;;3.57;;
45650;SDS011;31365;48.858;8.530;2023-12-07T11:19:49;11.80;;;2.53;;
45650;SDS011;31365;48.858;8.530;2023-12-07T11:22:18;4.33;;;2.63;;
45650;SDS011;31365;48.858;8.530;2023-12-07T11:24:52;2.50;;;2.30;;
45650;SDS011;31365;48.858;8.530;2023-12-07T11:27:24;5.80;;;1.90;;
45650;SDS011;31365;48.858;8.530;2023-12-07T11:29:58;2.53;;;2.33;;
45650;SDS011;31365;48.858;8.530;2023-12-07T11:32:27;5.27;;;2.60;;
45650;SDS011;31365;48.858;8.530;2023-12-07T11:35:01;4.10;;;3.57;;
45650;SDS011;31365;48.858;8.530;2023-12-07T11:40:34;8.53;;;2.80;;
45650;SDS011;31365;48.858;8.530;2023-12-07T11:43:03;4.13;;;2.97;;
45650;SDS011;31365;48.858;8.530;2023-12-07T11:45:35;6.23;;;3.23;;
45650;SDS011;31365;48.858;8.530;2023-12-07T11:48:08;8.20;;;3.20;;
45650;SDS011;31365;48.858;8.530;2023-12-07T11:50:54;9.27;;;4.07;;
45650;SDS011;31365;48.858;8.530;2023-12-07T11:53:26;8.33;;;3.50;;
45650;SDS011;31365;48.858;8.530;2023-12-07T11:55:57;5.93;;;3.23;;
45650;SDS011;31365;48.858;8.530;2023-12-07T11:58:26;7.87;;;4.33;;
45650;SDS011;31365;48.858;8.530;2023-12-07T12:00:58;5.37;;;3.30;;
45650;SDS011;31365;48.858;8.530;2023-12-07T12:03:28;13.03;;;2.97;;
45650;SDS011;31365;48.858;8.530;2023-12-07T12:06:02;10.87;;;4.17;;
45650;SDS011;31365;48.858;8.530;2023-12-07T12:08:33;3.83;;;3.43;;
45650;SDS011;31365;48.858;8.530;2023-12-07T12:11:01;5.20;;;3.70;;
45650;SDS011;31365;48.858;8.530;2023-12-07T12:13:30;9.77;;;3.97;;
45650;SDS011;31365;48.858;8.530;2023-12-07T12:16:02;9.93;;;3.30;;
45650;SDS011;31365;48.858;8.530;2023-12-07T12:18:33;3.30;;;2.93;;
45650;SDS011;31365;48.858;8.530;2023-12-07T12:21:06;14.90;;;3.60;;
45650;SDS011;31365;48.858;8.530;2023-12-07T12:23:35;7.13;;;2.70;;
45650;SDS011;31365;48.858;8.530;2023-12-07T12:26:06;11.90;;;3.57;;
45650;SDS011;31365;48.858;8.530;2023-12-07T12:28:37;9.03;;;3.70;;
45650;SDS011;31365;48.858;8.530;2023-12-07T12:31:10;21.43;;;4.37;;
45650;SDS011;31365;48.858;8.530;2023-12-07T12:33:39;7.17;;;2.80;;
45650;SDS011;31365;48.858;8.530;2023-12-07T12:36:09;20.20;;;4.30;;
45650;SDS011;31365;48.858;8.530;2023-12-07T12:38:38;7.23;;;3.50;;
45650;SDS011;31365;48.858;8.530;2023-12-07T12:41:10;10.97;;;3.53;;
45650;SDS011;31365;48.858;8.530;2023-12-07T12:43:39;4.50;;;3.20;;
45650;SDS011;31365;48.858;8.530;2023-12-07T12:46:09;23.10;;;4.53;;
45650;SDS011;31365;48.858;8.530;2023-12-07T12:48:51;18.93;;;5.00;;
45650;SDS011;31365;48.858;8.530;2023-12-07T12:51:24;5.97;;;3.20;;
45650;SDS011;31365;48.858;8.530;2023-12-07T12:53:54;30.80;;;5.60;;
45650;SDS011;31365;48.858;8.530;2023-12-07T12:56:26;34.67;;;6.27;;
45650;SDS011;31365;48.858;8.530;2023-12-07T12:58:55;23.77;;;4.00;;
45650;SDS011;31365;48.858;8.530;2023-12-07T13:01:30;28.93;;;6.00;;
45650;SDS011;31365;48.858;8.530;2023-12-07T13:03:59;5.20;;;3.27;;
45650;SDS011;31365;48.858;8.530;2023-12-07T13:06:29;9.93;;;4.30;;
45650;SDS011;31365;48.858;8.530;2023-12-07T13:08:58;9.40;;;3.90;;
45650;SDS011;31365;48.858;8.530;2023-12-07T13:11:26;5.30;;;3.23;;
45650;SDS011;31365;48.858;8.530;2023-12-07T13:13:54;15.13;;;4.13;;
45650;SDS011;31365;48.858;8.530;2023-12-07T13:16:22;284.10;;;28.53;;
45650;SDS011;31365;48.858;8.530;2023-12-07T13:18:51;30.03;;;14.37;;
45650;SDS011;31365;48.858;8.530;2023-12-07T13:21:20;11.27;;;4.30;;
45650;SDS011;31365;48.858;8.530;2023-12-07T13:23:50;11.67;;;5.70;;
45650;SDS011;31365;48.858;8.530;2023-12-07T13:26:19;16.57;;;5.20;;
45650;SDS011;31365;48.858;8.530;2023-12-07T13:28:49;58.97;;;7.67;;
45650;SDS011;31365;48.858;8.530;2023-12-07T13:31:18;11.70;;;4.30;;
45650;SDS011;31365;48.858;8.530;2023-12-07T13:33:46;5.93;;;2.90;;
45650;SDS011;31365;48.858;8.530;2023-12-07T13:36:22;5.03;;;3.23;;
45650;SDS011;31365;48.858;8.530;2023-12-07T13:38:54;20.73;;;5.20;;
45650;SDS011;31365;48.858;8.530;2023-12-07T13:41:23;36.37;;;8.17;;
45650;SDS011;31365;48.858;8.530;2023-12-07T13:43:51;20.10;;;5.13;;
45650;SDS011;31365;48.858;8.530;2023-12-07T13:46:19;20.33;;;6.60;;
45650;SDS011;31365;48.858;8.530;2023-12-07T13:48:47;27.73;;;6.77;;
45650;SDS011;31365;48.858;8.530;2023-12-07T13:51:16;43.37;;;7.17;;
45650;SDS011;31365;48.858;8.530;2023-12-07T13:53:44;10.13;;;3.50;;
45650;SDS011;31365;48.858;8.530;2023-12-07T13:56:16;62.23;;;8.37;;
45650;SDS011;31365;48.858;8.530;2023-12-07T13:58:44;9.97;;;4.77;;
45650;SDS011;31365;48.858;8.530;2023-12-07T14:01:13;14.10;;;4.50;;
45650;SDS011;31365;48.858;8.530;2023-12-07T14:03:41;31.20;;;5.83;;
45650;SDS011;31365;48.858;8.530;2023-12-07T14:06:10;10.23;;;4.17;;
45650;SDS011;31365;48.858;8.530;2023-12-07T14:08:52;22.10;;;6.20;;
45650;SDS011;31365;48.858;8.530;2023-12-07T14:11:22;22.37;;;4.97;;
45650;SDS011;31365;48.858;8.530;2023-12-07T14:13:50;14.70;;;4.53;;
45650;SDS011;31365;48.858;8.530;2023-12-07T14:16:20;15.13;;;5.10;;
45650;SDS011;31365;48.858;8.530;2023-12-07T14:19:08;8.80;;;3.47;;
45650;SDS011;31365;48.858;8.530;2023-12-07T14:21:40;11.97;;;3.87;;
45650;SDS011;31365;48.858;8.530;2023-12-07T14:24:22;32.93;;;6.17;;
45650;SDS011;31365;48.858;8.530;2023-12-07T14:26:53;18.00;;;5.20;;
45650;SDS011;31365;48.858;8.530;2023-12-07T14:29:22;13.00;;;3.60;;
45650;SDS011;31365;48.858;8.530;2023-12-07T14:31:53;11.87;;;4.70;;
45650;SDS011;31365;48.858;8.530;2023-12-07T14:34:22;24.20;;;4.90;;
45650;SDS011;31365;48.858;8.530;2023-12-07T14:37:03;17.00;;;4.77;;
45650;SDS011;31365;48.858;8.530;2023-12-07T14:39:33;17.33;;;4.63;;
45650;SDS011;31365;48.858;8.530;2023-12-07T14:42:04;7.97;;;4.30;;
45650;SDS011;31365;48.858;8.530;2023-12-07T14:44:33;24.43;;;5.07;;
45650;SDS011;31365;48.858;8.530;2023-12-07T14:47:02;17.20;;;4.43;;
45650;SDS011;31365;48.858;8.530;2023-12-07T14:49:30;23.20;;;4.50;;
45650;SDS011;31365;48.858;8.530;2023-12-07T14:51:59;11.33;;;3.37;;
45650;SDS011;31365;48.858;8.530;2023-12-07T14:54:27;7.77;;;3.67;;
45650;SDS011;31365;48.858;8.530;2023-12-07T14:56:57;25.43;;;5.07;;
45650;SDS011;31365;48.858;8.530;2023-12-07T14:59:27;7.63;;;3.27;;
45650;SDS011;31365;48.858;8.530;2023-12-07T15:01:56;17.00;;;4.60;;